sensor_id;sensor_type;location;lat;lon;timestamp;P1;durP1;ratioP1;P2;durP2;ratioP2
29402;SDS011;16382;59.942;30.472;2022-08-27T00:01:38;4.72;;;4.32;;
29402;SDS011;16382;59.942;30.472;2022-08-27T00:04:06;4.57;;;3.95;;
29402;SDS011;16382;59.942;30.472;2022-08-27T00:06:34;5.13;;;4.53;;
29402;SDS011;16382;59.942;30.472;2022-08-27T00:09:02;4.72;;;4.30;;
29402;SDS011;16382;59.942;30.472;2022-08-27T00:11:30;5.63;;;3.85;;
29402;SDS011;16382;59.942;30.472;2022-08-27T00:13:59;5.03;;;4.35;;
29402;SDS011;16382;59.942;30.472;2022-08-27T00:16:26;5.57;;;4.38;;
29402;SDS011;16382;59.942;30.472;2022-08-27T00:18:55;4.03;;;3.72;;
29402;SDS011;16382;59.942;30.472;2022-08-27T00:21:23;4.30;;;3.90;;
29402;SDS011;16382;59.942;30.472;2022-08-27T00:23:51;6.68;;;4.32;;
29402;SDS011;16382;59.942;30.472;2022-08-27T00:26:18;4.80;;;4.28;;
29402;SDS011;16382;59.942;30.472;2022-08-27T00:28:46;6.10;;;3.60;;
29402;SDS011;16382;59.942;30.472;2022-08-27T00:31:14;3.83;;;3.53;;
29402;SDS011;16382;59.942;30.472;2022-08-27T00:33:42;4.95;;;4.25;;
29402;SDS011;16382;59.942;30.472;2022-08-27T00:36:10;3.65;;;3.20;;
29402;SDS011;16382;59.942;30.472;2022-08-27T00:38:40;3.63;;;3.33;;
29402;SDS011;16382;59.942;30.472;2022-08-27T00:41:09;3.63;;;3.30;;
29402;SDS011;16382;59.942;30.472;2022-08-27T00:43:43;3.75;;;3.45;;
29402;SDS011;16382;59.942;30.472;2022-08-27T00:46:16;3.40;;;3.10;;
29402;SDS011;16382;59.942;30.472;2022-08-27T00:48:50;3.30;;;3.08;;
29402;SDS011;16382;59.942;30.472;2022-08-27T00:51:23;3.50;;;3.20;;
29402;SDS011;16382;59.942;30.472;2022-08-27T00:53:53;2.85;;;2.55;;
29402;SDS011;16382;59.942;30.472;2022-08-27T00:56:23;2.80;;;2.60;;
29402;SDS011;16382;59.942;30.472;2022-08-27T00:58:54;3.05;;;2.85;;
29402;SDS011;16382;59.942;30.472;2022-08-27T01:01:23;3.97;;;2.90;;
29402;SDS011;16382;59.942;30.472;2022-08-27T01:03:59;5.28;;;3.30;;
29402;SDS011;16382;59.942;30.472;2022-08-27T01:06:31;5.18;;;3.00;;
29402;SDS011;16382;59.942;30.472;2022-08-27T01:09:04;2.95;;;2.75;;
29402;SDS011;16382;59.942;30.472;2022-08-27T01:11:40;3.28;;;3.00;;
29402;SDS011;16382;59.942;30.472;2022-08-27T01:14:08;3.60;;;2.97;;
29402;SDS011;16382;59.942;30.472;2022-08-27T01:16:38;3.25;;;3.05;;
29402;SDS011;16382;59.942;30.472;2022-08-27T01:19:09;3.22;;;2.97;;
29402;SDS011;16382;59.942;30.472;2022-08-27T01:21:48;3.30;;;3.10;;
29402;SDS011;16382;59.942;30.472;2022-08-27T01:24:25;4.25;;;3.83;;
29402;SDS011;16382;59.942;30.472;2022-08-27T01:27:00;4.50;;;4.10;;
29402;SDS011;16382;59.942;30.472;2022-08-27T01:29:30;4.65;;;4.18;;
29402;SDS011;16382;59.942;30.472;2022-08-27T01:31:58;5.20;;;3.72;;
29402;SDS011;16382;59.942;30.472;2022-08-27T01:34:33;5.47;;;4.38;;
29402;SDS011;16382;59.942;30.472;2022-08-27T01:37:00;4.60;;;4.22;;
29402;SDS011;16382;59.942;30.472;2022-08-27T01:39:31;5.13;;;4.32;;
29402;SDS011;16382;59.942;30.472;2022-08-27T01:42:01;4.90;;;4.45;;
29402;SDS011;16382;59.942;30.472;2022-08-27T01:47:12;7.20;;;4.88;;
29402;SDS011;16382;59.942;30.472;2022-08-27T01:49:41;5.15;;;4.68;;
29402;SDS011;16382;59.942;30.472;2022-08-27T01:52:09;7.15;;;5.25;;
29402;SDS011;16382;59.942;30.472;2022-08-27T01:54:38;5.47;;;4.75;;
29402;SDS011;16382;59.942;30.472;2022-08-27T01:57:06;6.28;;;5.25;;
29402;SDS011;16382;59.942;30.472;2022-08-27T01:59:34;6.22;;;5.07;;
29402;SDS011;16382;59.942;30.472;2022-08-27T02:02:02;9.90;;;5.35;;
29402;SDS011;16382;59.942;30.472;2022-08-27T02:04:30;6.45;;;5.55;;
29402;SDS011;16382;59.942;30.472;2022-08-27T02:06:58;6.07;;;5.47;;
29402;SDS011;16382;59.942;30.472;2022-08-27T02:09:25;8.13;;;5.65;;
29402;SDS011;16382;59.942;30.472;2022-08-27T02:11:54;9.75;;;6.35;;
29402;SDS011;16382;59.942;30.472;2022-08-27T02:14:22;8.02;;;5.72;;
29402;SDS011;16382;59.942;30.472;2022-08-27T02:16:49;6.63;;;5.75;;
29402;SDS011;16382;59.942;30.472;2022-08-27T02:19:16;7.72;;;5.75;;
29402;SDS011;16382;59.942;30.472;2022-08-27T02:21:44;11.48;;;6.50;;
29402;SDS011;16382;59.942;30.472;2022-08-27T02:24:11;11.77;;;6.30;;
29402;SDS011;16382;59.942;30.472;2022-08-27T02:26:39;10.30;;;6.57;;
29402;SDS011;16382;59.942;30.472;2022-08-27T02:29:08;10.50;;;5.82;;
29402;SDS011;16382;59.942;30.472;2022-08-27T02:31:36;8.18;;;5.68;;
29402;SDS011;16382;59.942;30.472;2022-08-27T02:34:04;7.50;;;4.32;;
29402;SDS011;16382;59.942;30.472;2022-08-27T02:36:31;11.77;;;5.18;;
29402;SDS011;16382;59.942;30.472;2022-08-27T02:38:59;7.93;;;4.47;;
29402;SDS011;16382;59.942;30.472;2022-08-27T02:41:26;6.88;;;4.18;;
29402;SDS011;16382;59.942;30.472;2022-08-27T02:43:54;7.88;;;4.88;;
29402;SDS011;16382;59.942;30.472;2022-08-27T02:46:23;6.80;;;4.00;;
29402;SDS011;16382;59.942;30.472;2022-08-27T02:48:51;5.93;;;3.90;;
29402;SDS011;16382;59.942;30.472;2022-08-27T02:51:18;4.72;;;4.38;;
29402;SDS011;16382;59.942;30.472;2022-08-27T02:53:45;5.53;;;4.90;;
29402;SDS011;16382;59.942;30.472;2022-08-27T02:56:12;5.60;;;4.00;;
29402;SDS011;16382;59.942;30.472;2022-08-27T02:58:40;6.53;;;4.63;;
29402;SDS011;16382;59.942;30.472;2022-08-27T03:01:07;5.22;;;4.72;;
29402;SDS011;16382;59.942;30.472;2022-08-27T03:03:36;5.63;;;4.88;;
29402;SDS011;16382;59.942;30.472;2022-08-27T03:06:03;5.05;;;4.38;;
29402;SDS011;16382;59.942;30.472;2022-08-27T03:08:31;7.68;;;4.43;;
29402;SDS011;16382;59.942;30.472;2022-08-27T03:10:58;5.05;;;4.45;;
29402;SDS011;16382;59.942;30.472;2022-08-27T03:13:26;5.75;;;4.22;;
29402;SDS011;16382;59.942;30.472;2022-08-27T03:15:53;9.00;;;5.15;;
29402;SDS011;16382;59.942;30.472;2022-08-27T03:18:20;7.20;;;5.43;;
29402;SDS011;16382;59.942;30.472;2022-08-27T03:20:51;9.55;;;6.15;;
29402;SDS011;16382;59.942;30.472;2022-08-27T03:23:22;6.95;;;5.05;;
29402;SDS011;16382;59.942;30.472;2022-08-27T03:25:51;5.95;;;5.35;;
29402;SDS011;16382;59.942;30.472;2022-08-27T03:28:22;8.30;;;5.43;;
29402;SDS011;16382;59.942;30.472;2022-08-27T03:30:53;6.22;;;5.22;;
29402;SDS011;16382;59.942;30.472;2022-08-27T03:33:24;9.85;;;6.18;;
29402;SDS011;16382;59.942;30.472;2022-08-27T03:35:55;6.30;;;5.50;;
29402;SDS011;16382;59.942;30.472;2022-08-27T03:38:22;8.43;;;5.68;;
29402;SDS011;16382;59.942;30.472;2022-08-27T03:40:52;9.15;;;6.20;;
29402;SDS011;16382;59.942;30.472;2022-08-27T03:43:20;7.25;;;4.93;;
29402;SDS011;16382;59.942;30.472;2022-08-27T03:45:49;6.30;;;5.50;;
29402;SDS011;16382;59.942;30.472;2022-08-27T03:48:17;7.90;;;5.50;;
29402;SDS011;16382;59.942;30.472;2022-08-27T03:50:46;8.38;;;5.97;;
29402;SDS011;16382;59.942;30.472;2022-08-27T03:53:17;8.45;;;6.13;;
29402;SDS011;16382;59.942;30.472;2022-08-27T03:55:45;7.13;;;5.55;;
29402;SDS011;16382;59.942;30.472;2022-08-27T03:58:13;10.88;;;6.40;;
29402;SDS011;16382;59.942;30.472;2022-08-27T04:00:42;9.75;;;6.00;;
29402;SDS011;16382;59.942;30.472;2022-08-27T04:03:11;12.32;;;6.65;;
29402;SDS011;16382;59.942;30.472;2022-08-27T04:05:39;9.10;;;6.20;;
29402;SDS011;16382;59.942;30.472;2022-08-27T04:08:07;13.13;;;5.57;;
29402;SDS011;16382;59.942;30.472;2022-08-27T04:10:38;8.32;;;6.80;;
29402;SDS011;16382;59.942;30.472;2022-08-27T04:13:06;10.73;;;6.32;;
29402;SDS011;16382;59.942;30.472;2022-08-27T04:15:34;8.85;;;6.70;;
29402;SDS011;16382;59.942;30.472;2022-08-27T04:18:02;8.73;;;6.10;;
29402;SDS011;16382;59.942;30.472;2022-08-27T04:20:30;11.25;;;7.55;;
29402;SDS011;16382;59.942;30.472;2022-08-27T04:22:58;13.02;;;7.07;;
29402;SDS011;16382;59.942;30.472;2022-08-27T04:25:26;10.48;;;6.45;;
29402;SDS011;16382;59.942;30.472;2022-08-27T04:27:55;13.48;;;6.80;;
29402;SDS011;16382;59.942;30.472;2022-08-27T04:30:23;9.43;;;6.75;;
29402;SDS011;16382;59.942;30.472;2022-08-27T04:32:50;9.30;;;6.07;;
29402;SDS011;16382;59.942;30.472;2022-08-27T04:35:22;12.50;;;9.00;;
29402;SDS011;16382;59.942;30.472;2022-08-27T04:37:50;12.35;;;6.93;;
29402;SDS011;16382;59.942;30.472;2022-08-27T04:40:18;9.10;;;6.43;;
29402;SDS011;16382;59.942;30.472;2022-08-27T04:42:45;6.45;;;5.78;;
29402;SDS011;16382;59.942;30.472;2022-08-27T04:45:14;6.53;;;5.43;;
29402;SDS011;16382;59.942;30.472;2022-08-27T04:47:42;6.68;;;5.55;;
29402;SDS011;16382;59.942;30.472;2022-08-27T04:50:10;11.23;;;6.03;;
29402;SDS011;16382;59.942;30.472;2022-08-27T04:52:38;9.13;;;6.53;;
29402;SDS011;16382;59.942;30.472;2022-08-27T04:55:08;10.07;;;5.70;;
29402;SDS011;16382;59.942;30.472;2022-08-27T04:57:38;9.10;;;5.70;;
29402;SDS011;16382;59.942;30.472;2022-08-27T05:00:06;10.75;;;6.88;;
29402;SDS011;16382;59.942;30.472;2022-08-27T05:02:36;12.55;;;6.82;;
29402;SDS011;16382;59.942;30.472;2022-08-27T05:05:04;10.88;;;6.65;;
29402;SDS011;16382;59.942;30.472;2022-08-27T05:07:33;9.90;;;6.03;;
29402;SDS011;16382;59.942;30.472;2022-08-27T05:10:00;9.57;;;6.93;;
29402;SDS011;16382;59.942;30.472;2022-08-27T05:12:28;8.45;;;6.32;;
29402;SDS011;16382;59.942;30.472;2022-08-27T05:14:55;11.50;;;6.40;;
29402;SDS011;16382;59.942;30.472;2022-08-27T05:17:23;6.72;;;5.80;;
29402;SDS011;16382;59.942;30.472;2022-08-27T05:19:51;6.18;;;5.40;;
29402;SDS011;16382;59.942;30.472;2022-08-27T05:22:19;7.30;;;6.00;;
29402;SDS011;16382;59.942;30.472;2022-08-27T05:24:47;8.75;;;5.45;;
29402;SDS011;16382;59.942;30.472;2022-08-27T05:27:15;9.30;;;6.35;;
29402;SDS011;16382;59.942;30.472;2022-08-27T05:29:43;20.35;;;8.40;;
29402;SDS011;16382;59.942;30.472;2022-08-27T05:32:10;7.28;;;5.57;;
29402;SDS011;16382;59.942;30.472;2022-08-27T05:34:38;32.67;;;11.10;;
29402;SDS011;16382;59.942;30.472;2022-08-27T05:37:07;59.92;;;17.40;;
29402;SDS011;16382;59.942;30.472;2022-08-27T05:39:35;8.77;;;6.43;;
29402;SDS011;16382;59.942;30.472;2022-08-27T05:42:02;9.93;;;6.20;;
29402;SDS011;16382;59.942;30.472;2022-08-27T05:44:30;7.95;;;5.65;;
29402;SDS011;16382;59.942;30.472;2022-08-27T05:46:57;8.18;;;5.00;;
29402;SDS011;16382;59.942;30.472;2022-08-27T05:49:25;7.13;;;5.30;;
29402;SDS011;16382;59.942;30.472;2022-08-27T05:51:52;9.43;;;5.82;;
29402;SDS011;16382;59.942;30.472;2022-08-27T05:54:21;5.88;;;5.32;;
29402;SDS011;16382;59.942;30.472;2022-08-27T05:56:49;9.18;;;4.68;;
29402;SDS011;16382;59.942;30.472;2022-08-27T05:59:17;8.60;;;6.30;;
29402;SDS011;16382;59.942;30.472;2022-08-27T06:02:02;8.18;;;5.40;;
29402;SDS011;16382;59.942;30.472;2022-08-27T06:04:34;7.10;;;5.28;;
29402;SDS011;16382;59.942;30.472;2022-08-27T06:07:03;6.72;;;5.15;;
29402;SDS011;16382;59.942;30.472;2022-08-27T06:09:34;8.55;;;6.03;;
29402;SDS011;16382;59.942;30.472;2022-08-27T06:12:04;6.93;;;4.82;;
29402;SDS011;16382;59.942;30.472;2022-08-27T06:14:33;5.70;;;4.40;;
29402;SDS011;16382;59.942;30.472;2022-08-27T06:17:02;5.65;;;4.82;;
29402;SDS011;16382;59.942;30.472;2022-08-27T06:19:30;5.75;;;4.65;;
29402;SDS011;16382;59.942;30.472;2022-08-27T06:21:59;5.60;;;5.05;;
29402;SDS011;16382;59.942;30.472;2022-08-27T06:24:26;10.60;;;7.10;;
29402;SDS011;16382;59.942;30.472;2022-08-27T06:26:56;7.60;;;4.60;;
29402;SDS011;16382;59.942;30.472;2022-08-27T06:29:23;6.63;;;4.22;;
29402;SDS011;16382;59.942;30.472;2022-08-27T06:31:51;5.93;;;4.10;;
29402;SDS011;16382;59.942;30.472;2022-08-27T06:34:20;4.63;;;4.00;;
29402;SDS011;16382;59.942;30.472;2022-08-27T06:36:48;9.45;;;4.70;;
29402;SDS011;16382;59.942;30.472;2022-08-27T06:39:17;5.88;;;4.70;;
29402;SDS011;16382;59.942;30.472;2022-08-27T06:41:45;5.70;;;4.68;;
29402;SDS011;16382;59.942;30.472;2022-08-27T06:44:20;6.22;;;5.07;;
29402;SDS011;16382;59.942;30.472;2022-08-27T06:46:48;8.38;;;7.25;;
29402;SDS011;16382;59.942;30.472;2022-08-27T06:49:17;7.72;;;5.32;;
29402;SDS011;16382;59.942;30.472;2022-08-27T06:51:45;6.30;;;5.60;;
29402;SDS011;16382;59.942;30.472;2022-08-27T06:54:14;10.10;;;4.75;;
29402;SDS011;16382;59.942;30.472;2022-08-27T06:56:44;11.02;;;5.38;;
29402;SDS011;16382;59.942;30.472;2022-08-27T06:59:14;6.43;;;4.50;;
29402;SDS011;16382;59.942;30.472;2022-08-27T07:01:47;7.40;;;4.75;;
29402;SDS011;16382;59.942;30.472;2022-08-27T07:04:17;7.28;;;4.38;;
29402;SDS011;16382;59.942;30.472;2022-08-27T07:06:48;4.60;;;4.20;;
29402;SDS011;16382;59.942;30.472;2022-08-27T07:09:17;7.70;;;6.95;;
29402;SDS011;16382;59.942;30.472;2022-08-27T07:11:49;5.88;;;4.32;;
29402;SDS011;16382;59.942;30.472;2022-08-27T07:14:17;13.40;;;5.05;;
29402;SDS011;16382;59.942;30.472;2022-08-27T07:16:46;5.82;;;4.85;;
29402;SDS011;16382;59.942;30.472;2022-08-27T07:19:15;16.63;;;5.00;;
29402;SDS011;16382;59.942;30.472;2022-08-27T07:21:42;10.07;;;8.73;;
29402;SDS011;16382;59.942;30.472;2022-08-27T07:24:10;4.63;;;4.22;;
29402;SDS011;16382;59.942;30.472;2022-08-27T07:26:39;6.03;;;4.70;;
29402;SDS011;16382;59.942;30.472;2022-08-27T07:29:09;6.10;;;3.92;;
29402;SDS011;16382;59.942;30.472;2022-08-27T07:31:40;7.22;;;4.75;;
29402;SDS011;16382;59.942;30.472;2022-08-27T07:34:09;6.25;;;4.05;;
29402;SDS011;16382;59.942;30.472;2022-08-27T07:36:37;5.30;;;3.40;;
29402;SDS011;16382;59.942;30.472;2022-08-27T07:39:05;9.82;;;4.18;;
29402;SDS011;16382;59.942;30.472;2022-08-27T07:41:33;6.22;;;3.55;;
29402;SDS011;16382;59.942;30.472;2022-08-27T07:44:22;7.80;;;3.63;;
29402;SDS011;16382;59.942;30.472;2022-08-27T07:46:50;8.20;;;3.38;;
29402;SDS011;16382;59.942;30.472;2022-08-27T07:49:20;11.35;;;4.32;;
29402;SDS011;16382;59.942;30.472;2022-08-27T07:51:49;5.22;;;3.72;;
29402;SDS011;16382;59.942;30.472;2022-08-27T07:54:19;4.95;;;3.63;;
29402;SDS011;16382;59.942;30.472;2022-08-27T07:56:48;4.40;;;4.07;;
29402;SDS011;16382;59.942;30.472;2022-08-27T07:59:15;7.80;;;4.20;;
29402;SDS011;16382;59.942;30.472;2022-08-27T08:01:43;6.45;;;4.00;;
29402;SDS011;16382;59.942;30.472;2022-08-27T08:04:13;9.40;;;4.32;;
29402;SDS011;16382;59.942;30.472;2022-08-27T08:06:42;5.15;;;4.65;;
29402;SDS011;16382;59.942;30.472;2022-08-27T08:09:09;9.00;;;4.03;;
29402;SDS011;16382;59.942;30.472;2022-08-27T08:11:38;7.10;;;4.78;;
29402;SDS011;16382;59.942;30.472;2022-08-27T08:14:06;9.25;;;4.85;;
29402;SDS011;16382;59.942;30.472;2022-08-27T08:16:34;6.13;;;4.35;;
29402;SDS011;16382;59.942;30.472;2022-08-27T08:19:01;7.88;;;4.40;;
29402;SDS011;16382;59.942;30.472;2022-08-27T08:21:28;10.63;;;5.13;;
29402;SDS011;16382;59.942;30.472;2022-08-27T08:23:57;4.13;;;3.80;;
29402;SDS011;16382;59.942;30.472;2022-08-27T08:26:27;11.15;;;4.78;;
29402;SDS011;16382;59.942;30.472;2022-08-27T08:28:54;8.02;;;4.60;;
29402;SDS011;16382;59.942;30.472;2022-08-27T08:31:23;7.43;;;4.70;;
29402;SDS011;16382;59.942;30.472;2022-08-27T08:33:51;4.65;;;4.10;;
29402;SDS011;16382;59.942;30.472;2022-08-27T08:36:19;6.75;;;5.38;;
29402;SDS011;16382;59.942;30.472;2022-08-27T08:38:46;4.93;;;4.38;;
29402;SDS011;16382;59.942;30.472;2022-08-27T08:41:23;8.52;;;4.88;;
29402;SDS011;16382;59.942;30.472;2022-08-27T08:44:08;9.43;;;4.97;;
29402;SDS011;16382;59.942;30.472;2022-08-27T08:46:45;5.30;;;4.78;;
29402;SDS011;16382;59.942;30.472;2022-08-27T08:49:18;7.68;;;4.25;;
29402;SDS011;16382;59.942;30.472;2022-08-27T08:52:00;5.70;;;4.78;;
29402;SDS011;16382;59.942;30.472;2022-08-27T08:54:54;7.25;;;5.30;;
29402;SDS011;16382;59.942;30.472;2022-08-27T08:57:37;6.50;;;4.28;;
29402;SDS011;16382;59.942;30.472;2022-08-27T09:00:14;11.30;;;4.47;;
29402;SDS011;16382;59.942;30.472;2022-08-27T09:02:44;7.97;;;4.85;;
29402;SDS011;16382;59.942;30.472;2022-08-27T09:05:19;9.10;;;4.53;;
29402;SDS011;16382;59.942;30.472;2022-08-27T09:07:49;8.35;;;4.20;;
29402;SDS011;16382;59.942;30.472;2022-08-27T09:10:28;4.97;;;4.47;;
29402;SDS011;16382;59.942;30.472;2022-08-27T09:13:07;6.03;;;4.00;;
29402;SDS011;16382;59.942;30.472;2022-08-27T09:18:15;9.73;;;4.15;;
29402;SDS011;16382;59.942;30.472;2022-08-27T09:20:44;7.90;;;4.18;;
29402;SDS011;16382;59.942;30.472;2022-08-27T09:23:17;7.60;;;6.32;;
29402;SDS011;16382;59.942;30.472;2022-08-27T09:25:50;6.70;;;5.38;;
29402;SDS011;16382;59.942;30.472;2022-08-27T09:28:20;10.82;;;5.03;;
29402;SDS011;16382;59.942;30.472;2022-08-27T09:31:09;10.85;;;5.20;;
29402;SDS011;16382;59.942;30.472;2022-08-27T09:33:41;8.00;;;4.45;;
29402;SDS011;16382;59.942;30.472;2022-08-27T09:36:12;4.72;;;4.00;;
29402;SDS011;16382;59.942;30.472;2022-08-27T09:38:49;7.38;;;5.18;;
29402;SDS011;16382;59.942;30.472;2022-08-27T09:41:21;9.80;;;6.00;;
29402;SDS011;16382;59.942;30.472;2022-08-27T09:43:57;6.35;;;4.80;;
29402;SDS011;16382;59.942;30.472;2022-08-27T09:46:27;5.32;;;4.82;;
29402;SDS011;16382;59.942;30.472;2022-08-27T09:48:55;6.22;;;4.43;;
29402;SDS011;16382;59.942;30.472;2022-08-27T09:51:24;6.72;;;4.60;;
29402;SDS011;16382;59.942;30.472;2022-08-27T09:53:54;9.32;;;4.93;;
29402;SDS011;16382;59.942;30.472;2022-08-27T09:56:28;6.77;;;4.57;;
29402;SDS011;16382;59.942;30.472;2022-08-27T09:59:02;9.25;;;5.90;;
29402;SDS011;16382;59.942;30.472;2022-08-27T10:01:36;10.27;;;5.20;;
29402;SDS011;16382;59.942;30.472;2022-08-27T10:04:24;7.93;;;5.03;;
29402;SDS011;16382;59.942;30.472;2022-08-27T10:06:54;9.07;;;5.45;;
29402;SDS011;16382;59.942;30.472;2022-08-27T10:09:25;5.28;;;4.68;;
29402;SDS011;16382;59.942;30.472;2022-08-27T10:12:02;9.77;;;4.80;;
29402;SDS011;16382;59.942;30.472;2022-08-27T10:14:37;7.43;;;4.90;;
29402;SDS011;16382;59.942;30.472;2022-08-27T10:17:11;9.98;;;5.60;;
29402;SDS011;16382;59.942;30.472;2022-08-27T10:19:53;7.55;;;4.70;;
29402;SDS011;16382;59.942;30.472;2022-08-27T10:22:38;8.98;;;4.45;;
29402;SDS011;16382;59.942;30.472;2022-08-27T10:25:16;13.00;;;4.80;;
29402;SDS011;16382;59.942;30.472;2022-08-27T10:27:57;10.90;;;5.20;;
29402;SDS011;16382;59.942;30.472;2022-08-27T10:30:42;6.13;;;5.13;;
29402;SDS011;16382;59.942;30.472;2022-08-27T10:33:25;7.65;;;4.88;;
29402;SDS011;16382;59.942;30.472;2022-08-27T10:36:02;4.70;;;4.22;;
29402;SDS011;16382;59.942;30.472;2022-08-27T10:38:45;8.02;;;5.00;;
29402;SDS011;16382;59.942;30.472;2022-08-27T10:41:20;13.07;;;9.35;;
29402;SDS011;16382;59.942;30.472;2022-08-27T10:43:58;8.65;;;5.15;;
29402;SDS011;16382;59.942;30.472;2022-08-27T10:46:55;5.00;;;4.40;;
29402;SDS011;16382;59.942;30.472;2022-08-27T10:49:38;8.07;;;4.70;;
29402;SDS011;16382;59.942;30.472;2022-08-27T10:52:19;9.40;;;4.68;;
29402;SDS011;16382;59.942;30.472;2022-08-27T10:54:55;8.48;;;5.00;;
29402;SDS011;16382;59.942;30.472;2022-08-27T10:57:31;9.40;;;5.68;;
29402;SDS011;16382;59.942;30.472;2022-08-27T11:00:18;8.60;;;6.05;;
29402;SDS011;16382;59.942;30.472;2022-08-27T11:02:49;7.47;;;5.50;;
29402;SDS011;16382;59.942;30.472;2022-08-27T11:05:27;8.43;;;5.95;;
29402;SDS011;16382;59.942;30.472;2022-08-27T11:08:00;9.52;;;6.10;;
29402;SDS011;16382;59.942;30.472;2022-08-27T11:10:35;12.10;;;5.82;;
29402;SDS011;16382;59.942;30.472;2022-08-27T11:13:09;8.45;;;6.18;;
29402;SDS011;16382;59.942;30.472;2022-08-27T11:15:43;6.70;;;5.00;;
29402;SDS011;16382;59.942;30.472;2022-08-27T11:18:19;12.70;;;5.93;;
29402;SDS011;16382;59.942;30.472;2022-08-27T11:20:56;9.80;;;6.20;;
29402;SDS011;16382;59.942;30.472;2022-08-27T11:23:30;10.05;;;5.32;;
29402;SDS011;16382;59.942;30.472;2022-08-27T11:26:06;8.20;;;6.63;;
29402;SDS011;16382;59.942;30.472;2022-08-27T11:28:37;10.77;;;6.40;;
29402;SDS011;16382;59.942;30.472;2022-08-27T11:31:11;9.10;;;6.18;;
29402;SDS011;16382;59.942;30.472;2022-08-27T11:33:48;7.15;;;5.70;;
29402;SDS011;16382;59.942;30.472;2022-08-27T11:39:44;11.93;;;6.15;;
29402;SDS011;16382;59.942;30.472;2022-08-27T11:42:43;9.27;;;5.85;;
29402;SDS011;16382;59.942;30.472;2022-08-27T11:47:51;6.00;;;5.50;;
29402;SDS011;16382;59.942;30.472;2022-08-27T11:50:24;9.90;;;6.18;;
29402;SDS011;16382;59.942;30.472;2022-08-27T11:52:57;12.75;;;6.55;;
29402;SDS011;16382;59.942;30.472;2022-08-27T11:55:30;8.07;;;5.88;;
29402;SDS011;16382;59.942;30.472;2022-08-27T11:58:04;6.63;;;6.03;;
29402;SDS011;16382;59.942;30.472;2022-08-27T12:00:37;7.78;;;6.40;;
29402;SDS011;16382;59.942;30.472;2022-08-27T12:03:21;11.35;;;7.35;;
29402;SDS011;16382;59.942;30.472;2022-08-27T12:06:17;9.02;;;6.32;;
29402;SDS011;16382;59.942;30.472;2022-08-27T12:09:04;6.70;;;5.82;;
29402;SDS011;16382;59.942;30.472;2022-08-27T12:11:42;8.48;;;6.78;;
29402;SDS011;16382;59.942;30.472;2022-08-27T12:14:26;8.45;;;7.05;;
29402;SDS011;16382;59.942;30.472;2022-08-27T12:17:11;10.10;;;6.43;;
29402;SDS011;16382;59.942;30.472;2022-08-27T12:19:58;13.82;;;6.53;;
29402;SDS011;16382;59.942;30.472;2022-08-27T12:22:44;8.50;;;5.90;;
29402;SDS011;16382;59.942;30.472;2022-08-27T12:25:55;10.32;;;7.15;;
29402;SDS011;16382;59.942;30.472;2022-08-27T12:28:26;13.25;;;6.63;;
29402;SDS011;16382;59.942;30.472;2022-08-27T12:30:54;14.90;;;6.75;;
29402;SDS011;16382;59.942;30.472;2022-08-27T12:33:25;9.73;;;6.28;;
29402;SDS011;16382;59.942;30.472;2022-08-27T12:35:58;13.30;;;5.95;;
29402;SDS011;16382;59.942;30.472;2022-08-27T12:38:39;11.02;;;6.82;;
29402;SDS011;16382;59.942;30.472;2022-08-27T12:41:22;7.30;;;6.63;;
29402;SDS011;16382;59.942;30.472;2022-08-27T12:44:01;7.43;;;6.65;;
29402;SDS011;16382;59.942;30.472;2022-08-27T12:46:31;9.25;;;6.60;;
29402;SDS011;16382;59.942;30.472;2022-08-27T12:49:03;12.18;;;7.07;;
29402;SDS011;16382;59.942;30.472;2022-08-27T12:51:34;9.63;;;6.47;;
29402;SDS011;16382;59.942;30.472;2022-08-27T12:54:07;6.68;;;6.03;;
29402;SDS011;16382;59.942;30.472;2022-08-27T12:56:52;9.93;;;6.28;;
29402;SDS011;16382;59.942;30.472;2022-08-27T12:59:34;7.40;;;6.70;;
29402;SDS011;16382;59.942;30.472;2022-08-27T13:05:41;7.97;;;7.32;;
29402;SDS011;16382;59.942;30.472;2022-08-27T13:08:17;12.13;;;7.30;;
29402;SDS011;16382;59.942;30.472;2022-08-27T13:10:49;9.73;;;6.47;;
29402;SDS011;16382;59.942;30.472;2022-08-27T13:13:19;8.77;;;7.50;;
29402;SDS011;16382;59.942;30.472;2022-08-27T13:15:51;10.48;;;7.43;;
29402;SDS011;16382;59.942;30.472;2022-08-27T13:18:21;19.95;;;11.63;;
29402;SDS011;16382;59.942;30.472;2022-08-27T13:20:59;15.48;;;9.20;;
29402;SDS011;16382;59.942;30.472;2022-08-27T13:23:31;8.07;;;6.50;;
29402;SDS011;16382;59.942;30.472;2022-08-27T13:26:05;15.85;;;8.60;;
29402;SDS011;16382;59.942;30.472;2022-08-27T13:28:36;12.07;;;8.95;;
29402;SDS011;16382;59.942;30.472;2022-08-27T13:31:07;12.50;;;7.32;;
29402;SDS011;16382;59.942;30.472;2022-08-27T13:33:37;10.63;;;6.97;;
29402;SDS011;16382;59.942;30.472;2022-08-27T13:36:07;8.87;;;5.83;;
29402;SDS011;16382;59.942;30.472;2022-08-27T13:38:37;7.13;;;5.70;;
29402;SDS011;16382;59.942;30.472;2022-08-27T13:41:18;8.65;;;5.50;;
29402;SDS011;16382;59.942;30.472;2022-08-27T13:43:55;7.78;;;6.43;;
29402;SDS011;16382;59.942;30.472;2022-08-27T13:46:33;7.93;;;5.65;;
29402;SDS011;16382;59.942;30.472;2022-08-27T13:49:16;10.48;;;7.85;;
29402;SDS011;16382;59.942;30.472;2022-08-27T13:51:48;16.58;;;6.13;;
29402;SDS011;16382;59.942;30.472;2022-08-27T13:54:24;10.25;;;5.32;;
29402;SDS011;16382;59.942;30.472;2022-08-27T13:56:57;5.38;;;4.88;;
29402;SDS011;16382;59.942;30.472;2022-08-27T13:59:33;6.97;;;5.30;;
29402;SDS011;16382;59.942;30.472;2022-08-27T14:02:14;7.13;;;5.97;;
29402;SDS011;16382;59.942;30.472;2022-08-27T14:04:49;9.25;;;5.43;;
29402;SDS011;16382;59.942;30.472;2022-08-27T14:07:35;8.50;;;6.03;;
29402;SDS011;16382;59.942;30.472;2022-08-27T14:10:24;9.43;;;5.78;;
29402;SDS011;16382;59.942;30.472;2022-08-27T14:13:06;9.98;;;4.35;;
29402;SDS011;16382;59.942;30.472;2022-08-27T14:15:37;8.10;;;5.32;;
29402;SDS011;16382;59.942;30.472;2022-08-27T14:18:19;7.43;;;4.70;;
29402;SDS011;16382;59.942;30.472;2022-08-27T14:20:50;6.22;;;4.70;;
29402;SDS011;16382;59.942;30.472;2022-08-27T14:23:19;5.82;;;4.47;;
29402;SDS011;16382;59.942;30.472;2022-08-27T14:25:49;9.65;;;4.60;;
29402;SDS011;16382;59.942;30.472;2022-08-27T14:28:20;11.70;;;5.13;;
29402;SDS011;16382;59.942;30.472;2022-08-27T14:30:49;5.32;;;4.55;;
29402;SDS011;16382;59.942;30.472;2022-08-27T14:33:39;5.60;;;4.68;;
29402;SDS011;16382;59.942;30.472;2022-08-27T14:36:12;5.50;;;4.70;;
29402;SDS011;16382;59.942;30.472;2022-08-27T14:38:41;5.40;;;4.80;;
29402;SDS011;16382;59.942;30.472;2022-08-27T14:41:13;5.78;;;5.22;;
29402;SDS011;16382;59.942;30.472;2022-08-27T14:43:47;8.52;;;5.88;;
29402;SDS011;16382;59.942;30.472;2022-08-27T14:46:29;6.25;;;5.63;;
29402;SDS011;16382;59.942;30.472;2022-08-27T14:49:00;9.15;;;5.80;;
29402;SDS011;16382;59.942;30.472;2022-08-27T14:51:37;6.43;;;5.90;;
29402;SDS011;16382;59.942;30.472;2022-08-27T14:54:10;8.75;;;5.05;;
29402;SDS011;16382;59.942;30.472;2022-08-27T14:56:38;6.57;;;5.97;;
29402;SDS011;16382;59.942;30.472;2022-08-27T14:59:09;9.18;;;8.30;;
29402;SDS011;16382;59.942;30.472;2022-08-27T15:01:38;7.65;;;5.80;;
29402;SDS011;16382;59.942;30.472;2022-08-27T15:04:07;6.18;;;5.57;;
29402;SDS011;16382;59.942;30.472;2022-08-27T15:06:37;7.72;;;5.75;;
29402;SDS011;16382;59.942;30.472;2022-08-27T15:09:07;8.65;;;6.32;;
29402;SDS011;16382;59.942;30.472;2022-08-27T15:11:36;8.02;;;5.70;;
29402;SDS011;16382;59.942;30.472;2022-08-27T15:14:08;9.00;;;5.45;;